Список аэропортов
Фактическая погода:

21 апреля, 19:30
Температура: +13°C (+12.7*)
Ветер: северный 2 м/с
Давление: *770 мм
Без существ. явл.
Время (МСК)Темп. СВетерВлажностьДавлениеОблачностьОсадки
15:00+16В, 2 м/с22%1026 гПаясно
16:00+16СВ, 1 м/с22%1026 гПаясно
17:00+16СВ, 1 м/с22%1026 гПаясно
18:00+16СВ, 1 м/с24%1026 гПаясно
19:00+15СВ, 1 м/с26%1026 гПаясно
20:00+11СВ, 1 м/с36%1027 гПаясно
21:00+9Штиль 43%1028 гПаясно
22:00+7СЗ, 1 м/с47%1028 гПаясно
23:00+6СЗ, 2 м/с56%1028 гПаясно
22 апреля
00:00+5С, 2 м/с66%1028 гПаясно
01:00+4С, 2 м/с75%1029 гПаясно
02:00+3СЗ, 2 м/с81%1029 гПаясно
03:00+2СЗ, 1 м/с85%1029 гПаясно
04:00+1СЗ, 1 м/с86%1029 гПаясно
05:00+1СЗ, 1 м/с85%1030 гПаясно
06:00+1З, 1 м/с84%1030 гПаясно
07:00+4З, 1 м/с71%1030 гПаясно
08:00+7З, 1 м/с59%1029 гПаясно
09:00+12З, 2 м/с38%1029 гПаясно
10:00+16З, 2 м/с28%1029 гПаясно
11:00+16З, 2 м/с25%1029 гПаясно
12:00+17З, 3 м/с24%1029 гПаясно
13:00+18З, 3 м/с23%1028 гПаясно
14:00+18З, 3 м/с23%1028 гПаясно
15:00+18З, 4 м/с23%1028 гПаясно
16:00+18З, 4 м/с23%1027 гПаясно
17:00+18З, 5 м/с24%1027 гПаясно
18:00+17З, 5 м/с28%1027 гПаясно
19:00+16З, 4 м/с32%1027 гПаясно
20:00+13З, 2 м/с42%1027 гПаясно
21:00+11З, 2 м/с52%1028 гПаясно
22:00+10ЮЗ, 2 м/с60%1028 гПас прояснениями
23:00+9З, 3 м/с68%1028 гПас прояснениями
23 апреля
00:00+8З, 2 м/с74%1028 гПаоблачно
01:00+7З, 2 м/с79%1029 гПаоблачно
02:00+6З, 2 м/с85%1029 гПаоблачно
03:00+5ЮЗ, 2 м/с87%1028 гПаоблачно
04:00+6З, 3 м/с83%1028 гПаоблачно
05:00+5З, 3 м/с82%1028 гПаоблачно
06:00+6З, 3 м/с78%1028 гПаоблачно
07:00+8З, 4 м/с66%1028 гПаоблачно
08:00+10З, 4 м/с56%1028 гПаоблачно
09:00+14З, 5 м/с44%1027 гПаоблачно
10:00+16З, 7 м/с38%1027 гПаоблачно
11:00+17З, 7 м/с34%1027 гПаоблачносл. дождь
12:00+17З, 8 м/с32%1027 гПаоблачносл. дождь
13:00+17З, 9 м/с33%1026 гПаоблачносл. дождь
14:00+18З, 9 м/с32%1026 гПаоблачно
15:00+18З, 9 м/с30%1025 гПаоблачно